sensor_id;sensor_type;location;lat;lon;timestamp;pressure;altitude;pressure_sealevel;temperature;humidity
43804;BME280;29430;52.924;-2.388;2023-09-30T00:01:11;100044.53;;;12.08;97.70
43804;BME280;29430;52.924;-2.388;2023-09-30T00:06:03;100068.38;;;12.06;97.63
43804;BME280;29430;52.924;-2.388;2023-09-30T00:10:55;100067.59;;;11.99;98.26
43804;BME280;29430;52.924;-2.388;2023-09-30T00:15:47;100068.63;;;11.98;99.22
43804;BME280;29430;52.924;-2.388;2023-09-30T00:20:39;100068.03;;;11.96;99.40
43804;BME280;29430;52.924;-2.388;2023-09-30T00:25:32;100069.69;;;11.97;99.80
43804;BME280;29430;52.924;-2.388;2023-09-30T00:30:23;100071.34;;;11.98;99.87
43804;BME280;29430;52.924;-2.388;2023-09-30T00:35:15;100070.31;;;11.99;99.89
43804;BME280;29430;52.924;-2.388;2023-09-30T00:40:08;100069.25;;;12.00;100.00
43804;BME280;29430;52.924;-2.388;2023-09-30T00:45:06;100055.66;;;12.00;99.83
43804;BME280;29430;52.924;-2.388;2023-09-30T00:49:58;100056.28;;;12.02;99.59
43804;BME280;29430;52.924;-2.388;2023-09-30T00:54:51;100049.41;;;11.99;99.70
43804;BME280;29430;52.924;-2.388;2023-09-30T00:59:43;100042.28;;;11.98;99.38
43804;BME280;29430;52.924;-2.388;2023-09-30T01:04:36;100042.50;;;11.97;99.64
43804;BME280;29430;52.924;-2.388;2023-09-30T01:09:28;100036.69;;;11.93;99.22
43804;BME280;29430;52.924;-2.388;2023-09-30T01:14:31;100049.44;;;11.86;99.42
43804;BME280;29430;52.924;-2.388;2023-09-30T01:19:23;100050.94;;;11.82;99.45
43804;BME280;29430;52.924;-2.388;2023-09-30T01:24:16;100046.59;;;11.74;99.62
43804;BME280;29430;52.924;-2.388;2023-09-30T01:29:08;100039.09;;;11.70;100.00
43804;BME280;29430;52.924;-2.388;2023-09-30T01:34:02;100044.53;;;11.63;100.00
43804;BME280;29430;52.924;-2.388;2023-09-30T01:38:54;100053.97;;;11.60;100.00
43804;BME280;29430;52.924;-2.388;2023-09-30T01:43:46;100034.75;;;11.55;100.00
43804;BME280;29430;52.924;-2.388;2023-09-30T01:48:38;100032.06;;;11.49;100.00
43804;BME280;29430;52.924;-2.388;2023-09-30T01:53:30;100019.97;;;11.44;100.00
43804;BME280;29430;52.924;-2.388;2023-09-30T01:58:22;100026.69;;;11.42;100.00
43804;BME280;29430;52.924;-2.388;2023-09-30T02:03:13;100028.53;;;11.41;100.00
43804;BME280;29430;52.924;-2.388;2023-09-30T02:08:05;100028.97;;;11.38;100.00
43804;BME280;29430;52.924;-2.388;2023-09-30T02:12:57;100051.56;;;11.32;100.00
43804;BME280;29430;52.924;-2.388;2023-09-30T02:17:51;100045.69;;;11.35;100.00
43804;BME280;29430;52.924;-2.388;2023-09-30T02:22:43;100038.41;;;11.29;100.00
43804;BME280;29430;52.924;-2.388;2023-09-30T02:27:36;100042.41;;;11.26;100.00
43804;BME280;29430;52.924;-2.388;2023-09-30T02:32:28;100034.69;;;11.23;100.00
43804;BME280;29430;52.924;-2.388;2023-09-30T02:37:20;100049.31;;;11.22;100.00
43804;BME280;29430;52.924;-2.388;2023-09-30T02:42:12;100038.22;;;11.24;100.00
43804;BME280;29430;52.924;-2.388;2023-09-30T02:47:03;100029.25;;;11.23;100.00
43804;BME280;29430;52.924;-2.388;2023-09-30T02:51:56;99999.63;;;11.22;100.00
43804;BME280;29430;52.924;-2.388;2023-09-30T02:56:48;100017.16;;;11.19;100.00
43804;BME280;29430;52.924;-2.388;2023-09-30T03:01:40;100020.69;;;11.20;100.00
43804;BME280;29430;52.924;-2.388;2023-09-30T03:06:32;100022.81;;;11.18;100.00
43804;BME280;29430;52.924;-2.388;2023-09-30T03:11:24;100023.22;;;11.15;100.00
43804;BME280;29430;52.924;-2.388;2023-09-30T03:16:16;100027.84;;;11.14;100.00
43804;BME280;29430;52.924;-2.388;2023-09-30T03:21:13;100024.25;;;11.14;100.00
43804;BME280;29430;52.924;-2.388;2023-09-30T03:26:05;100019.03;;;11.12;100.00
43804;BME280;29430;52.924;-2.388;2023-09-30T03:31:01;100013.41;;;11.14;100.00
43804;BME280;29430;52.924;-2.388;2023-09-30T03:35:56;100009.66;;;11.15;100.00
43804;BME280;29430;52.924;-2.388;2023-09-30T03:40:49;100012.38;;;11.15;100.00
43804;BME280;29430;52.924;-2.388;2023-09-30T03:45:41;100016.75;;;11.16;100.00
43804;BME280;29430;52.924;-2.388;2023-09-30T03:50:33;100026.97;;;11.14;100.00
43804;BME280;29430;52.924;-2.388;2023-09-30T03:55:25;100022.19;;;11.16;100.00
43804;BME280;29430;52.924;-2.388;2023-09-30T04:00:16;100025.94;;;11.15;100.00
43804;BME280;29430;52.924;-2.388;2023-09-30T04:05:12;100014.69;;;11.11;100.00
43804;BME280;29430;52.924;-2.388;2023-09-30T04:10:05;100042.03;;;11.09;100.00
43804;BME280;29430;52.924;-2.388;2023-09-30T04:14:57;100044.75;;;11.09;100.00
43804;BME280;29430;52.924;-2.388;2023-09-30T04:19:49;100052.69;;;11.11;100.00
43804;BME280;29430;52.924;-2.388;2023-09-30T04:24:45;100051.00;;;11.10;100.00
43804;BME280;29430;52.924;-2.388;2023-09-30T04:29:37;100020.34;;;11.09;100.00
43804;BME280;29430;52.924;-2.388;2023-09-30T04:34:29;99990.47;;;11.09;100.00
43804;BME280;29430;52.924;-2.388;2023-09-30T04:39:20;99990.69;;;11.08;100.00
43804;BME280;29430;52.924;-2.388;2023-09-30T04:44:12;99994.22;;;11.08;100.00
43804;BME280;29430;52.924;-2.388;2023-09-30T04:49:04;99977.94;;;11.08;100.00
43804;BME280;29430;52.924;-2.388;2023-09-30T04:53:56;99992.53;;;11.07;100.00
43804;BME280;29430;52.924;-2.388;2023-09-30T04:58:49;100004.25;;;11.08;100.00
43804;BME280;29430;52.924;-2.388;2023-09-30T05:03:40;99993.41;;;11.08;100.00
43804;BME280;29430;52.924;-2.388;2023-09-30T05:08:32;100002.16;;;11.10;100.00
43804;BME280;29430;52.924;-2.388;2023-09-30T05:13:24;100001.31;;;11.09;100.00
43804;BME280;29430;52.924;-2.388;2023-09-30T05:18:16;100011.13;;;11.10;100.00
43804;BME280;29430;52.924;-2.388;2023-09-30T05:23:07;100006.75;;;11.09;100.00
43804;BME280;29430;52.924;-2.388;2023-09-30T05:27:59;99995.69;;;11.11;100.00
43804;BME280;29430;52.924;-2.388;2023-09-30T05:32:51;99982.31;;;11.09;100.00
43804;BME280;29430;52.924;-2.388;2023-09-30T05:37:44;99982.75;;;11.06;100.00
43804;BME280;29430;52.924;-2.388;2023-09-30T05:42:39;99986.72;;;11.04;100.00
43804;BME280;29430;52.924;-2.388;2023-09-30T05:47:31;99976.06;;;11.02;100.00
43804;BME280;29430;52.924;-2.388;2023-09-30T05:52:22;99980.91;;;11.00;100.00
43804;BME280;29430;52.924;-2.388;2023-09-30T05:57:14;99975.25;;;10.95;100.00
43804;BME280;29430;52.924;-2.388;2023-09-30T06:02:06;99989.03;;;10.93;100.00
43804;BME280;29430;52.924;-2.388;2023-09-30T06:06:58;99999.69;;;10.95;100.00
43804;BME280;29430;52.924;-2.388;2023-09-30T06:11:49;100012.63;;;10.93;100.00
43804;BME280;29430;52.924;-2.388;2023-09-30T06:16:42;99998.25;;;10.92;100.00
43804;BME280;29430;52.924;-2.388;2023-09-30T06:21:33;100022.47;;;10.94;100.00
43804;BME280;29430;52.924;-2.388;2023-09-30T06:26:26;100024.75;;;10.97;100.00
43804;BME280;29430;52.924;-2.388;2023-09-30T06:31:20;100025.16;;;11.01;100.00
43804;BME280;29430;52.924;-2.388;2023-09-30T06:36:13;100045.63;;;11.03;100.00
43804;BME280;29430;52.924;-2.388;2023-09-30T06:41:08;100037.22;;;11.11;100.00
43804;BME280;29430;52.924;-2.388;2023-09-30T06:46:05;100034.91;;;11.15;100.00
43804;BME280;29430;52.924;-2.388;2023-09-30T06:50:59;100034.06;;;11.21;100.00
43804;BME280;29430;52.924;-2.388;2023-09-30T06:55:51;100034.66;;;11.30;100.00
43804;BME280;29430;52.924;-2.388;2023-09-30T07:00:44;100024.81;;;11.36;100.00
43804;BME280;29430;52.924;-2.388;2023-09-30T07:05:36;100030.63;;;11.46;100.00
43804;BME280;29430;52.924;-2.388;2023-09-30T07:10:28;100027.66;;;11.54;100.00
43804;BME280;29430;52.924;-2.388;2023-09-30T07:15:20;100024.22;;;11.72;100.00
43804;BME280;29430;52.924;-2.388;2023-09-30T07:20:12;100033.53;;;11.90;100.00
43804;BME280;29430;52.924;-2.388;2023-09-30T07:25:04;100028.44;;;12.07;100.00
43804;BME280;29430;52.924;-2.388;2023-09-30T07:29:56;100035.94;;;12.11;100.00
43804;BME280;29430;52.924;-2.388;2023-09-30T07:34:48;100035.94;;;12.11;100.00
43804;BME280;29430;52.924;-2.388;2023-09-30T07:39:40;100031.09;;;12.13;100.00
43804;BME280;29430;52.924;-2.388;2023-09-30T07:44:32;100048.66;;;12.17;100.00
43804;BME280;29430;52.924;-2.388;2023-09-30T07:49:24;100066.75;;;12.30;100.00
43804;BME280;29430;52.924;-2.388;2023-09-30T07:54:15;100057.44;;;12.70;100.00
43804;BME280;29430;52.924;-2.388;2023-09-30T07:59:22;100052.94;;;13.01;100.00
43804;BME280;29430;52.924;-2.388;2023-09-30T08:04:14;100051.38;;;13.12;100.00
43804;BME280;29430;52.924;-2.388;2023-09-30T08:09:06;100056.41;;;13.33;100.00
43804;BME280;29430;52.924;-2.388;2023-09-30T08:14:05;100059.94;;;13.52;100.00
43804;BME280;29430;52.924;-2.388;2023-09-30T08:18:58;100047.66;;;13.61;100.00
43804;BME280;29430;52.924;-2.388;2023-09-30T08:23:50;100034.50;;;13.58;100.00
43804;BME280;29430;52.924;-2.388;2023-09-30T08:28:42;100021.31;;;13.55;100.00
43804;BME280;29430;52.924;-2.388;2023-09-30T08:33:33;100025.25;;;13.59;99.87
43804;BME280;29430;52.924;-2.388;2023-09-30T08:38:27;100007.00;;;13.60;100.00
43804;BME280;29430;52.924;-2.388;2023-09-30T08:43:21;100012.13;;;13.68;99.90
43804;BME280;29430;52.924;-2.388;2023-09-30T08:48:20;100010.91;;;13.83;99.61
43804;BME280;29430;52.924;-2.388;2023-09-30T08:53:16;100015.81;;;14.04;99.82
43804;BME280;29430;52.924;-2.388;2023-09-30T08:58:08;100027.59;;;14.28;98.71
43804;BME280;29430;52.924;-2.388;2023-09-30T09:02:59;100034.63;;;14.48;96.78
43804;BME280;29430;52.924;-2.388;2023-09-30T09:07:51;100033.34;;;14.62;96.12
43804;BME280;29430;52.924;-2.388;2023-09-30T09:12:43;100033.63;;;14.84;95.34
43804;BME280;29430;52.924;-2.388;2023-09-30T09:17:46;100035.59;;;15.01;94.00
43804;BME280;29430;52.924;-2.388;2023-09-30T09:22:39;100042.84;;;15.07;93.35
43804;BME280;29430;52.924;-2.388;2023-09-30T09:27:33;100043.78;;;15.13;93.21
43804;BME280;29430;52.924;-2.388;2023-09-30T09:32:26;100045.00;;;15.17;93.33
43804;BME280;29430;52.924;-2.388;2023-09-30T09:37:20;100027.03;;;15.21;92.62
43804;BME280;29430;52.924;-2.388;2023-09-30T09:42:26;100022.50;;;15.27;92.61
43804;BME280;29430;52.924;-2.388;2023-09-30T09:47:19;100030.56;;;15.33;90.39
43804;BME280;29430;52.924;-2.388;2023-09-30T09:52:13;100028.31;;;15.30;90.38
43804;BME280;29430;52.924;-2.388;2023-09-30T09:57:09;100017.97;;;15.32;91.17
43804;BME280;29430;52.924;-2.388;2023-09-30T10:02:04;100010.13;;;15.36;90.73
43804;BME280;29430;52.924;-2.388;2023-09-30T10:07:00;100012.53;;;15.61;90.93
43804;BME280;29430;52.924;-2.388;2023-09-30T10:12:00;100000.34;;;15.81;89.88
43804;BME280;29430;52.924;-2.388;2023-09-30T10:16:52;99996.28;;;15.83;88.56
43804;BME280;29430;52.924;-2.388;2023-09-30T10:22:22;100011.03;;;15.82;89.06
43804;BME280;29430;52.924;-2.388;2023-09-30T10:37:44;99998.31;;;15.76;89.88
43804;BME280;29430;52.924;-2.388;2023-09-30T10:42:50;99992.16;;;15.69;90.57
43804;BME280;29430;52.924;-2.388;2023-09-30T10:47:43;99981.06;;;15.58;91.13
43804;BME280;29430;52.924;-2.388;2023-09-30T10:52:35;99969.66;;;15.50;92.39
43804;BME280;29430;52.924;-2.388;2023-09-30T10:57:27;99952.00;;;15.40;93.29
43804;BME280;29430;52.924;-2.388;2023-09-30T11:02:19;99951.28;;;15.33;93.65
43804;BME280;29430;52.924;-2.388;2023-09-30T11:07:19;99947.41;;;15.29;94.42
43804;BME280;29430;52.924;-2.388;2023-09-30T11:12:14;99925.44;;;15.24;94.65
43804;BME280;29430;52.924;-2.388;2023-09-30T11:17:07;99936.84;;;15.21;95.36
43804;BME280;29430;52.924;-2.388;2023-09-30T11:21:58;99942.91;;;15.23;96.75
43804;BME280;29430;52.924;-2.388;2023-09-30T11:26:54;99938.53;;;15.22;96.96
43804;BME280;29430;52.924;-2.388;2023-09-30T11:31:47;99924.03;;;15.21;96.60
43804;BME280;29430;52.924;-2.388;2023-09-30T11:36:49;99938.03;;;15.25;97.06
43804;BME280;29430;52.924;-2.388;2023-09-30T11:41:42;99942.03;;;15.34;96.64
43804;BME280;29430;52.924;-2.388;2023-09-30T11:46:51;99942.97;;;15.40;97.29
43804;BME280;29430;52.924;-2.388;2023-09-30T11:51:47;99946.53;;;15.40;94.87
43804;BME280;29430;52.924;-2.388;2023-09-30T11:56:39;99959.25;;;15.35;95.25
43804;BME280;29430;52.924;-2.388;2023-09-30T12:01:31;99947.75;;;15.33;95.61
43804;BME280;29430;52.924;-2.388;2023-09-30T12:06:23;99950.81;;;15.36;96.24
43804;BME280;29430;52.924;-2.388;2023-09-30T12:11:15;99951.41;;;15.38;96.10
43804;BME280;29430;52.924;-2.388;2023-09-30T12:16:07;99951.78;;;15.30;97.13
43804;BME280;29430;52.924;-2.388;2023-09-30T12:20:59;99959.91;;;15.13;97.79
43804;BME280;29430;52.924;-2.388;2023-09-30T12:25:51;99968.75;;;15.03;98.94
43804;BME280;29430;52.924;-2.388;2023-09-30T12:31:01;99946.78;;;14.98;100.00
43804;BME280;29430;52.924;-2.388;2023-09-30T12:35:55;99936.09;;;14.97;100.00
43804;BME280;29430;52.924;-2.388;2023-09-30T12:40:46;99930.75;;;14.90;100.00
43804;BME280;29430;52.924;-2.388;2023-09-30T12:45:38;99932.81;;;14.83;100.00
43804;BME280;29430;52.924;-2.388;2023-09-30T12:50:31;99922.63;;;14.78;100.00
43804;BME280;29430;52.924;-2.388;2023-09-30T12:55:22;99935.66;;;14.76;100.00
43804;BME280;29430;52.924;-2.388;2023-09-30T13:00:15;99930.81;;;14.66;100.00
43804;BME280;29430;52.924;-2.388;2023-09-30T13:05:08;99923.44;;;14.55;100.00
43804;BME280;29430;52.924;-2.388;2023-09-30T13:09:59;99910.84;;;14.54;100.00
43804;BME280;29430;52.924;-2.388;2023-09-30T13:14:57;99882.38;;;14.50;100.00
43804;BME280;29430;52.924;-2.388;2023-09-30T13:19:50;99829.84;;;14.43;100.00
43804;BME280;29430;52.924;-2.388;2023-09-30T13:24:42;99828.75;;;14.44;100.00
43804;BME280;29430;52.924;-2.388;2023-09-30T13:29:34;99825.91;;;14.39;97.72
43804;BME280;29430;52.924;-2.388;2023-09-30T13:34:27;99821.41;;;14.32;98.70
43804;BME280;29430;52.924;-2.388;2023-09-30T13:39:19;99806.97;;;14.32;99.07
43804;BME280;29430;52.924;-2.388;2023-09-30T13:44:10;99784.03;;;14.33;100.00
43804;BME280;29430;52.924;-2.388;2023-09-30T13:49:03;99786.19;;;14.31;100.00
43804;BME280;29430;52.924;-2.388;2023-09-30T13:53:55;99783.22;;;14.32;100.00
43804;BME280;29430;52.924;-2.388;2023-09-30T13:58:47;99775.75;;;14.28;100.00
43804;BME280;29430;52.924;-2.388;2023-09-30T14:03:40;99771.59;;;14.25;100.00
43804;BME280;29430;52.924;-2.388;2023-09-30T14:08:32;99757.38;;;14.23;100.00
43804;BME280;29430;52.924;-2.388;2023-09-30T14:13:24;99736.03;;;14.20;100.00
43804;BME280;29430;52.924;-2.388;2023-09-30T14:18:15;99729.41;;;14.16;100.00
43804;BME280;29430;52.924;-2.388;2023-09-30T14:23:07;99734.84;;;14.16;100.00
43804;BME280;29430;52.924;-2.388;2023-09-30T14:27:59;99733.69;;;14.12;100.00
43804;BME280;29430;52.924;-2.388;2023-09-30T14:32:52;99729.78;;;14.08;100.00
43804;BME280;29430;52.924;-2.388;2023-09-30T14:37:43;99709.16;;;14.00;100.00
43804;BME280;29430;52.924;-2.388;2023-09-30T14:42:39;99694.09;;;13.97;100.00
43804;BME280;29430;52.924;-2.388;2023-09-30T14:47:33;99702.53;;;13.96;100.00
43804;BME280;29430;52.924;-2.388;2023-09-30T14:52:25;99680.63;;;13.91;100.00
43804;BME280;29430;52.924;-2.388;2023-09-30T14:57:16;99683.34;;;13.91;100.00
43804;BME280;29430;52.924;-2.388;2023-09-30T15:02:11;99681.91;;;13.88;100.00
43804;BME280;29430;52.924;-2.388;2023-09-30T15:07:03;99673.72;;;13.88;100.00
43804;BME280;29430;52.924;-2.388;2023-09-30T15:11:54;99655.75;;;13.87;100.00
43804;BME280;29430;52.924;-2.388;2023-09-30T15:16:46;99619.94;;;13.84;100.00
43804;BME280;29430;52.924;-2.388;2023-09-30T15:21:38;99629.44;;;13.81;100.00
43804;BME280;29430;52.924;-2.388;2023-09-30T15:26:30;99616.06;;;13.79;100.00
43804;BME280;29430;52.924;-2.388;2023-09-30T15:31:29;99622.31;;;13.80;100.00
43804;BME280;29430;52.924;-2.388;2023-09-30T15:36:21;99633.22;;;13.80;100.00
43804;BME280;29430;52.924;-2.388;2023-09-30T15:41:14;99622.56;;;13.78;100.00
43804;BME280;29430;52.924;-2.388;2023-09-30T15:46:08;99620.06;;;13.77;100.00
43804;BME280;29430;52.924;-2.388;2023-09-30T15:51:00;99611.91;;;13.77;100.00
43804;BME280;29430;52.924;-2.388;2023-09-30T15:55:51;99605.63;;;13.76;100.00
43804;BME280;29430;52.924;-2.388;2023-09-30T16:00:44;99598.75;;;13.74;100.00
43804;BME280;29430;52.924;-2.388;2023-09-30T16:05:39;99602.28;;;13.74;100.00
43804;BME280;29430;52.924;-2.388;2023-09-30T16:10:31;99609.31;;;13.70;100.00
43804;BME280;29430;52.924;-2.388;2023-09-30T16:15:23;99576.84;;;13.69;100.00
43804;BME280;29430;52.924;-2.388;2023-09-30T16:20:17;99573.03;;;13.70;100.00
43804;BME280;29430;52.924;-2.388;2023-09-30T16:25:15;99558.00;;;13.67;100.00
43804;BME280;29430;52.924;-2.388;2023-09-30T16:30:07;99562.03;;;13.65;100.00
43804;BME280;29430;52.924;-2.388;2023-09-30T16:34:58;99567.72;;;13.63;100.00
43804;BME280;29430;52.924;-2.388;2023-09-30T16:39:50;99563.00;;;13.58;100.00
43804;BME280;29430;52.924;-2.388;2023-09-30T16:44:42;99562.06;;;13.53;100.00
43804;BME280;29430;52.924;-2.388;2023-09-30T16:49:34;99560.75;;;13.55;100.00
43804;BME280;29430;52.924;-2.388;2023-09-30T16:54:26;99568.13;;;13.55;100.00
43804;BME280;29430;52.924;-2.388;2023-09-30T16:59:17;99571.66;;;13.55;100.00
43804;BME280;29430;52.924;-2.388;2023-09-30T17:04:09;99564.22;;;13.51;100.00
43804;BME280;29430;52.924;-2.388;2023-09-30T17:09:02;99565.28;;;13.50;100.00
43804;BME280;29430;52.924;-2.388;2023-09-30T17:13:53;99557.34;;;13.48;100.00
43804;BME280;29430;52.924;-2.388;2023-09-30T17:18:47;99552.97;;;13.47;100.00
43804;BME280;29430;52.924;-2.388;2023-09-30T17:23:42;99552.63;;;13.43;100.00
43804;BME280;29430;52.924;-2.388;2023-09-30T17:28:34;99561.88;;;13.42;100.00
43804;BME280;29430;52.924;-2.388;2023-09-30T17:33:26;99558.53;;;13.40;100.00
43804;BME280;29430;52.924;-2.388;2023-09-30T17:38:18;99559.03;;;13.37;100.00
43804;BME280;29430;52.924;-2.388;2023-09-30T17:43:09;99544.44;;;13.32;100.00
43804;BME280;29430;52.924;-2.388;2023-09-30T17:48:02;99545.75;;;13.29;100.00
43804;BME280;29430;52.924;-2.388;2023-09-30T17:59:20;99537.81;;;13.28;100.00
43804;BME280;29430;52.924;-2.388;2023-09-30T18:04:14;99532.84;;;13.24;100.00
43804;BME280;29430;52.924;-2.388;2023-09-30T18:09:06;99539.34;;;13.23;100.00
43804;BME280;29430;52.924;-2.388;2023-09-30T18:14:01;99532.03;;;13.24;100.00
43804;BME280;29430;52.924;-2.388;2023-09-30T18:18:53;99529.56;;;13.22;100.00
43804;BME280;29430;52.924;-2.388;2023-09-30T18:23:44;99545.91;;;13.22;100.00
43804;BME280;29430;52.924;-2.388;2023-09-30T18:28:36;99533.91;;;13.23;100.00
43804;BME280;29430;52.924;-2.388;2023-09-30T18:33:28;99523.25;;;13.22;100.00
43804;BME280;29430;52.924;-2.388;2023-09-30T18:38:20;99523.00;;;13.23;100.00
43804;BME280;29430;52.924;-2.388;2023-09-30T18:43:13;99503.13;;;13.23;100.00
43804;BME280;29430;52.924;-2.388;2023-09-30T18:48:05;99516.28;;;13.26;100.00
43804;BME280;29430;52.924;-2.388;2023-09-30T18:52:57;99504.06;;;13.29;100.00
43804;BME280;29430;52.924;-2.388;2023-09-30T18:57:49;99504.06;;;13.29;100.00
43804;BME280;29430;52.924;-2.388;2023-09-30T19:02:41;99501.94;;;13.31;100.00
43804;BME280;29430;52.924;-2.388;2023-09-30T19:07:32;99506.09;;;13.33;100.00
43804;BME280;29430;52.924;-2.388;2023-09-30T19:12:24;99501.81;;;13.37;100.00
43804;BME280;29430;52.924;-2.388;2023-09-30T19:17:16;99486.88;;;13.40;100.00
43804;BME280;29430;52.924;-2.388;2023-09-30T19:22:08;99472.22;;;13.41;100.00
43804;BME280;29430;52.924;-2.388;2023-09-30T19:27:00;99467.56;;;13.41;100.00
43804;BME280;29430;52.924;-2.388;2023-09-30T19:31:52;99466.28;;;13.44;100.00
43804;BME280;29430;52.924;-2.388;2023-09-30T19:36:45;99474.22;;;13.46;100.00
43804;BME280;29430;52.924;-2.388;2023-09-30T19:41:37;99480.22;;;13.48;100.00
43804;BME280;29430;52.924;-2.388;2023-09-30T19:46:31;99480.00;;;13.49;100.00
43804;BME280;29430;52.924;-2.388;2023-09-30T19:51:23;99461.72;;;13.50;100.00
43804;BME280;29430;52.924;-2.388;2023-09-30T19:56:16;99471.09;;;13.54;100.00
43804;BME280;29430;52.924;-2.388;2023-09-30T20:01:09;99451.75;;;13.55;100.00
43804;BME280;29430;52.924;-2.388;2023-09-30T20:06:17;99446.88;;;13.57;100.00
43804;BME280;29430;52.924;-2.388;2023-09-30T20:11:16;99443.91;;;13.59;100.00
43804;BME280;29430;52.924;-2.388;2023-09-30T20:16:08;99440.94;;;13.60;100.00
43804;BME280;29430;52.924;-2.388;2023-09-30T20:20:59;99429.81;;;13.62;100.00
43804;BME280;29430;52.924;-2.388;2023-09-30T20:25:51;99424.72;;;13.66;100.00
43804;BME280;29430;52.924;-2.388;2023-09-30T20:30:43;99447.34;;;13.66;100.00
43804;BME280;29430;52.924;-2.388;2023-09-30T20:35:35;99442.44;;;13.68;100.00
43804;BME280;29430;52.924;-2.388;2023-09-30T20:40:26;99439.25;;;13.71;100.00
43804;BME280;29430;52.924;-2.388;2023-09-30T20:45:21;99434.38;;;13.73;100.00
43804;BME280;29430;52.924;-2.388;2023-09-30T20:50:12;99432.00;;;13.77;100.00
43804;BME280;29430;52.924;-2.388;2023-09-30T20:55:06;99419.16;;;13.77;100.00
43804;BME280;29430;52.924;-2.388;2023-09-30T20:59:58;99420.59;;;13.80;100.00
43804;BME280;29430;52.924;-2.388;2023-09-30T21:04:50;99416.81;;;13.81;100.00
43804;BME280;29430;52.924;-2.388;2023-09-30T21:09:41;99419.53;;;13.81;100.00
43804;BME280;29430;52.924;-2.388;2023-09-30T21:14:35;99404.81;;;13.82;100.00
43804;BME280;29430;52.924;-2.388;2023-09-30T21:19:27;99414.66;;;13.83;100.00
43804;BME280;29430;52.924;-2.388;2023-09-30T21:24:19;99417.94;;;13.85;100.00
43804;BME280;29430;52.924;-2.388;2023-09-30T21:29:11;99409.50;;;13.87;100.00
43804;BME280;29430;52.924;-2.388;2023-09-30T21:34:04;99400.03;;;13.89;100.00
43804;BME280;29430;52.924;-2.388;2023-09-30T21:38:56;99394.31;;;13.91;100.00
43804;BME280;29430;52.924;-2.388;2023-09-30T21:43:48;99400.59;;;13.91;100.00
43804;BME280;29430;52.924;-2.388;2023-09-30T21:48:40;99408.28;;;13.94;100.00
43804;BME280;29430;52.924;-2.388;2023-09-30T21:53:32;99408.28;;;13.94;100.00
43804;BME280;29430;52.924;-2.388;2023-09-30T21:58:24;99415.16;;;13.97;100.00
43804;BME280;29430;52.924;-2.388;2023-09-30T22:03:17;99410.00;;;14.01;100.00
43804;BME280;29430;52.924;-2.388;2023-09-30T22:08:10;99412.75;;;14.01;100.00
43804;BME280;29430;52.924;-2.388;2023-09-30T22:13:02;99418.31;;;14.06;100.00
43804;BME280;29430;52.924;-2.388;2023-09-30T22:17:54;99424.06;;;14.09;100.00
43804;BME280;29430;52.924;-2.388;2023-09-30T22:22:45;99421.09;;;14.11;100.00
43804;BME280;29430;52.924;-2.388;2023-09-30T22:27:37;99417.88;;;14.14;100.00
43804;BME280;29430;52.924;-2.388;2023-09-30T22:32:31;99416.31;;;14.18;100.00
43804;BME280;29430;52.924;-2.388;2023-09-30T22:37:23;99412.25;;;14.21;100.00
43804;BME280;29430;52.924;-2.388;2023-09-30T22:42:15;99416.13;;;14.25;100.00
43804;BME280;29430;52.924;-2.388;2023-09-30T22:47:07;99411.84;;;14.29;100.00
43804;BME280;29430;52.924;-2.388;2023-09-30T22:51:58;99402.31;;;14.31;100.00
43804;BME280;29430;52.924;-2.388;2023-09-30T22:56:50;99396.03;;;14.31;100.00
43804;BME280;29430;52.924;-2.388;2023-09-30T23:01:44;99395.03;;;14.37;100.00
43804;BME280;29430;52.924;-2.388;2023-09-30T23:06:36;99394.53;;;14.40;100.00
43804;BME280;29430;52.924;-2.388;2023-09-30T23:11:29;99396.75;;;14.43;100.00
43804;BME280;29430;52.924;-2.388;2023-09-30T23:16:21;99383.44;;;14.47;100.00
43804;BME280;29430;52.924;-2.388;2023-09-30T23:21:13;99392.78;;;14.51;100.00
43804;BME280;29430;52.924;-2.388;2023-09-30T23:26:09;99387.63;;;14.55;100.00
43804;BME280;29430;52.924;-2.388;2023-09-30T23:31:01;99387.97;;;14.58;100.00
43804;BME280;29430;52.924;-2.388;2023-09-30T23:35:56;99385.31;;;14.63;100.00
43804;BME280;29430;52.924;-2.388;2023-09-30T23:40:47;99394.94;;;14.66;100.00
43804;BME280;29430;52.924;-2.388;2023-09-30T23:45:40;99387.03;;;14.70;100.00
43804;BME280;29430;52.924;-2.388;2023-09-30T23:50:35;99384.63;;;14.73;100.00
43804;BME280;29430;52.924;-2.388;2023-09-30T23:55:27;99394.22;;;14.76;100.00
